Time;durP1;ratioP1;P1;durP2;ratioP2;P2;SDS_P1;SDS_P2;PMS_P1;PMS_P2;Temp;Humidity;BMP_temperature;BMP_pressure;BME280_temperature;BME280_humidity;BME280_pressure;Samples;Min_cycle;Max_cycle;Signal;HPM_P1;HPM_P2
2021/07/14 00:01:26;;;;;;;2.30;2.20;;;14.20;99.90;;;;;;4979814;28;20679;-93
2021/07/14 00:03:53;;;;;;;2.67;2.43;;;14.20;99.90;;;;;;4981228;28;20623;-93
2021/07/14 00:06:19;;;;;;;5.87;2.70;;;14.20;99.90;;;;;;4984225;28;20647;-93
2021/07/14 00:08:46;;;;;;;2.30;2.20;;;14.20;99.90;;;;;;4984954;28;20629;-94
2021/07/14 00:11:13;;;;;;;8.03;2.33;;;14.20;99.90;;;;;;4978893;28;20665;-95
2021/07/14 00:13:58;;;;;;;4.30;2.20;;;14.20;99.90;;;;;;4979703;28;20660;-93
2021/07/14 00:22:08;;;;;;;2.53;2.33;;;14.10;99.90;;;;;;4952504;28;20985;-92
2021/07/14 00:24:35;;;;;;;3.07;2.80;;;14.10;99.90;;;;;;4979424;28;20999;-93
2021/07/14 00:27:04;;;;;;;2.60;2.37;;;14.10;99.90;;;;;;4982628;28;20641;-92
2021/07/14 00:29:35;;;;;;;3.43;2.80;;;14.20;99.90;;;;;;4981534;28;20690;-93
2021/07/14 00:32:02;;;;;;;3.40;3.17;;;14.10;99.90;;;;;;4987598;28;20636;-92
2021/07/14 00:34:29;;;;;;;5.47;3.00;;;14.10;99.90;;;;;;4984493;28;20631;-93
2021/07/14 00:36:56;;;;;;;2.80;2.47;;;14.10;99.90;;;;;;4981060;28;20666;-92
2021/07/14 00:39:23;;;;;;;4.90;2.73;;;14.10;99.90;;;;;;4986865;28;21017;-94
2021/07/14 00:41:49;;;;;;;3.07;2.80;;;14.10;99.90;;;;;;4988157;28;21231;-94
2021/07/14 00:44:17;;;;;;;5.40;2.87;;;14.10;99.90;;;;;;4985215;28;20676;-95
2021/07/14 00:46:47;;;;;;;4.80;2.60;;;14.00;99.90;;;;;;4988304;28;20625;-94
2021/07/14 00:49:16;;;;;;;4.50;2.50;;;14.00;99.90;;;;;;4984607;28;21240;-93
2021/07/14 00:51:43;;;;;;;3.80;3.10;;;14.10;99.90;;;;;;4984168;28;20627;-94
2021/07/14 00:54:11;;;;;;;3.37;2.60;;;14.00;99.90;;;;;;4988046;28;20632;-93
2021/07/14 00:56:39;;;;;;;3.93;3.10;;;13.90;99.90;;;;;;4985625;28;20632;-94
2021/07/14 00:59:05;;;;;;;7.73;2.73;;;14.00;99.90;;;;;;4985611;28;20652;-94
2021/07/14 01:01:32;;;;;;;3.37;2.50;;;13.80;99.90;;;;;;4985762;28;21230;-94
2021/07/14 01:04:09;;;;;;;4.10;2.87;;;13.80;99.90;;;;;;4985665;28;20628;-95
2021/07/14 01:06:47;;;;;;;2.70;2.50;;;13.70;99.90;;;;;;4985951;28;20632;-94
2021/07/14 01:09:16;;;;;;;3.10;2.90;;;13.80;99.90;;;;;;4986247;28;21202;-94
2021/07/14 01:11:45;;;;;;;3.33;3.13;;;13.80;99.90;;;;;;4984704;28;20640;-93
2021/07/14 01:14:21;;;;;;;2.80;2.60;;;13.80;99.90;;;;;;4986246;28;20640;-93
2021/07/14 01:16:54;;;;;;;7.03;2.97;;;13.70;99.90;;;;;;4985419;28;20617;-94
2021/07/14 01:19:38;;;;;;;3.90;3.57;;;13.80;99.90;;;;;;4984057;28;20680;-94
2021/07/14 01:22:13;;;;;;;8.60;2.70;;;13.80;99.90;;;;;;4985232;28;20644;-94
2021/07/14 01:24:49;;;;;;;3.30;2.80;;;13.80;99.90;;;;;;4983612;28;20632;-93
2021/07/14 01:27:19;;;;;;;2.57;2.37;;;13.70;99.90;;;;;;4985481;28;20632;-93
2021/07/14 01:29:50;;;;;;;4.10;2.60;;;13.70;99.90;;;;;;4982488;28;20659;-93
2021/07/14 01:32:19;;;;;;;3.40;2.70;;;13.70;99.90;;;;;;4988260;28;20629;-93
2021/07/14 01:34:50;;;;;;;4.77;3.40;;;13.70;99.90;;;;;;4982884;28;21485;-93
2021/07/14 01:37:22;;;;;;;2.87;2.53;;;13.70;99.90;;;;;;4989943;28;20673;-94
2021/07/14 01:39:50;;;;;;;7.60;2.90;;;13.80;99.90;;;;;;4991059;28;20652;-93
2021/07/14 01:42:22;;;;;;;5.20;3.10;;;13.70;99.90;;;;;;4985295;28;21179;-93
2021/07/14 01:44:52;;;;;;;5.57;2.90;;;13.80;99.90;;;;;;4985107;28;20987;-94
2021/07/14 01:47:20;;;;;;;3.57;2.93;;;13.90;99.90;;;;;;4985853;28;20628;-94
2021/07/14 01:49:52;;;;;;;5.97;2.60;;;13.90;99.90;;;;;;4987340;28;20656;-94
2021/07/14 01:52:23;;;;;;;6.60;3.33;;;13.90;99.90;;;;;;4991305;28;20667;-94
2021/07/14 01:54:52;;;;;;;3.57;2.90;;;13.90;99.90;;;;;;4986632;28;20632;-93
2021/07/14 01:57:22;;;;;;;2.97;2.67;;;13.90;99.90;;;;;;4977913;28;20879;-93
2021/07/14 01:59:50;;;;;;;5.70;3.60;;;13.90;99.90;;;;;;4990648;28;20723;-93
2021/07/14 02:02:22;;;;;;;5.00;3.13;;;13.90;99.90;;;;;;4985456;28;20647;-93
2021/07/14 02:04:49;;;;;;;3.47;3.17;;;13.90;99.90;;;;;;4986838;28;20629;-95
2021/07/14 02:07:17;;;;;;;4.83;2.60;;;14.00;99.90;;;;;;4989335;28;20628;-93
2021/07/14 02:09:46;;;;;;;3.07;2.73;;;14.10;99.90;;;;;;4985771;28;20649;-93
2021/07/14 02:12:16;;;;;;;5.00;2.70;;;14.10;99.90;;;;;;4987086;28;20616;-93
2021/07/14 02:14:47;;;;;;;3.10;2.80;;;14.10;99.90;;;;;;4987840;28;20657;-95
2021/07/14 02:17:17;;;;;;;5.73;2.60;;;14.10;99.90;;;;;;4987694;28;20659;-93
2021/07/14 02:19:51;;;;;;;7.93;3.10;;;14.10;99.90;;;;;;4985859;28;20668;-94
2021/07/14 02:22:18;;;;;;;4.37;2.80;;;14.10;99.90;;;;;;4987143;28;21012;-93
2021/07/14 02:24:45;;;;;;;3.27;2.60;;;14.00;99.90;;;;;;4983942;28;20628;-92
2021/07/14 02:27:13;;;;;;;3.03;2.73;;;14.00;99.90;;;;;;4985329;28;20635;-93
2021/07/14 02:29:41;;;;;;;3.60;2.40;;;14.00;99.90;;;;;;5001535;28;20989;-93
2021/07/14 02:32:15;;;;;;;3.13;2.93;;;14.00;99.90;;;;;;4986509;28;20636;-92
2021/07/14 02:34:43;;;;;;;3.50;2.97;;;14.10;99.90;;;;;;4987399;28;20632;-93
2021/07/14 02:37:12;;;;;;;3.40;2.67;;;14.00;99.90;;;;;;4983526;28;21189;-93
2021/07/14 02:39:43;;;;;;;5.07;3.30;;;14.00;99.90;;;;;;4988074;28;21238;-93
2021/07/14 02:42:15;;;;;;;2.50;2.30;;;14.00;99.90;;;;;;4987517;28;21214;-93
2021/07/14 02:44:45;;;;;;;4.10;2.37;;;13.90;99.90;;;;;;4986962;28;20691;-92
2021/07/14 02:47:14;;;;;;;3.73;2.43;;;13.90;99.90;;;;;;4986612;28;20686;-93
2021/07/14 02:49:42;;;;;;;2.73;2.43;;;13.90;99.90;;;;;;4983653;28;20661;-93
2021/07/14 02:52:11;;;;;;;6.77;2.63;;;13.90;99.90;;;;;;4983427;28;20636;-94
2021/07/14 02:54:41;;;;;;;5.50;2.13;;;13.90;99.90;;;;;;4983627;28;20632;-94
2021/07/14 02:57:11;;;;;;;6.40;2.90;;;13.90;99.90;;;;;;4988052;28;20630;-93
2021/07/14 02:59:40;;;;;;;3.67;2.47;;;13.90;99.90;;;;;;4986159;28;21092;-92
2021/07/14 03:02:08;;;;;;;3.43;2.13;;;13.90;99.90;;;;;;4981751;28;20636;-93
2021/07/14 03:04:39;;;;;;;6.13;2.40;;;13.80;99.90;;;;;;4987451;28;20625;-94
2021/07/14 03:07:08;;;;;;;3.20;2.30;;;13.80;99.90;;;;;;4983960;28;20620;-93
2021/07/14 03:09:38;;;;;;;2.80;2.33;;;13.80;99.90;;;;;;4985178;28;20727;-94
2021/07/14 03:12:08;;;;;;;2.90;2.70;;;13.80;99.90;;;;;;4988237;28;20702;-95
2021/07/14 03:14:37;;;;;;;3.00;2.27;;;13.80;99.90;;;;;;4988535;28;20647;-94
2021/07/14 03:17:05;;;;;;;3.53;2.63;;;13.70;99.90;;;;;;4987522;28;20678;-94
2021/07/14 03:19:34;;;;;;;3.53;2.10;;;13.80;99.90;;;;;;4985847;28;20675;-93
2021/07/14 03:22:02;;;;;;;3.07;2.47;;;13.70;99.90;;;;;;4985056;28;20710;-93
2021/07/14 03:24:32;;;;;;;3.03;2.50;;;13.70;99.90;;;;;;4983249;28;20632;-94
2021/07/14 03:26:59;;;;;;;2.63;2.40;;;13.70;99.90;;;;;;4987100;28;20617;-94
2021/07/14 03:29:27;;;;;;;3.33;1.93;;;13.70;99.90;;;;;;4984991;28;20612;-94
2021/07/14 03:31:55;;;;;;;5.40;2.40;;;13.60;99.90;;;;;;4988996;28;20617;-94
2021/07/14 03:34:22;;;;;;;3.37;2.97;;;13.70;99.90;;;;;;4976540;28;20637;-92
2021/07/14 03:36:50;;;;;;;2.77;2.57;;;13.60;99.90;;;;;;4982653;28;20663;-92
2021/07/14 03:39:19;;;;;;;5.33;2.63;;;13.70;99.90;;;;;;4982907;28;20631;-92
2021/07/14 03:41:48;;;;;;;3.30;3.00;;;13.70;99.90;;;;;;4994859;28;20645;-91
2021/07/14 03:44:18;;;;;;;3.23;2.33;;;13.70;99.90;;;;;;5000628;28;20617;-92
2021/07/14 03:46:45;;;;;;;4.27;2.33;;;13.70;99.90;;;;;;5005123;28;20609;-94
2021/07/14 03:49:13;;;;;;;4.73;2.50;;;13.70;99.90;;;;;;5007844;28;21531;-94
2021/07/14 03:51:42;;;;;;;3.37;2.33;;;13.60;99.90;;;;;;5005990;28;20671;-94
2021/07/14 03:54:11;;;;;;;3.70;2.00;;;13.70;99.90;;;;;;4996144;28;20625;-93
2021/07/14 03:56:40;;;;;;;5.83;2.77;;;13.70;99.90;;;;;;5004617;28;20635;-94
2021/07/14 03:59:07;;;;;;;3.17;2.23;;;13.70;99.90;;;;;;5004826;28;20664;-94
2021/07/14 04:01:36;;;;;;;3.80;2.70;;;13.70;99.90;;;;;;4992035;28;20660;-93
2021/07/14 04:04:05;;;;;;;3.83;2.80;;;13.70;99.90;;;;;;4987147;28;20663;-93
2021/07/14 04:06:34;;;;;;;5.63;2.10;;;13.80;99.90;;;;;;4979975;28;20636;-93
2021/07/14 04:09:25;;;;;;;4.23;2.77;;;13.80;99.90;;;;;;4983018;28;20620;-93
2021/07/14 04:11:59;;;;;;;3.10;2.77;;;13.80;99.90;;;;;;4984951;28;20636;-92
2021/07/14 04:14:28;;;;;;;5.83;2.80;;;13.90;99.90;;;;;;4981433;28;20648;-93
2021/07/14 04:16:58;;;;;;;2.63;2.43;;;13.90;99.90;;;;;;4987839;28;20629;-92
2021/07/14 04:19:24;;;;;;;2.57;2.37;;;13.90;99.90;;;;;;4983604;28;20664;-93
2021/07/14 04:21:51;;;;;;;3.10;2.70;;;13.90;99.90;;;;;;4981758;28;20640;-93
2021/07/14 04:24:19;;;;;;;4.17;2.60;;;13.90;99.90;;;;;;4986460;28;21160;-92
2021/07/14 04:26:46;;;;;;;3.20;2.73;;;14.00;99.90;;;;;;4982067;28;20993;-93
2021/07/14 04:29:15;;;;;;;4.30;3.00;;;14.10;99.90;;;;;;4985169;28;20631;-92
2021/07/14 04:31:42;;;;;;;3.70;2.90;;;14.10;99.90;;;;;;4987389;28;20636;-92
2021/07/14 04:34:08;;;;;;;4.60;1.90;;;14.10;99.90;;;;;;4984683;28;20638;-92
2021/07/14 04:36:36;;;;;;;3.77;2.53;;;14.10;99.90;;;;;;4982165;28;20638;-92
2021/07/14 04:39:05;;;;;;;3.13;2.60;;;14.10;99.90;;;;;;4985125;28;20696;-91
2021/07/14 04:41:32;;;;;;;3.90;3.03;;;14.10;99.90;;;;;;4983071;28;20660;-91
2021/07/14 04:44:01;;;;;;;5.00;2.43;;;14.20;99.90;;;;;;4987482;28;20643;-92
2021/07/14 04:46:29;;;;;;;2.77;2.57;;;14.20;99.90;;;;;;4983417;28;21016;-92
2021/07/14 04:48:56;;;;;;;4.00;2.23;;;14.20;99.90;;;;;;4980881;28;21183;-95
2021/07/14 04:51:23;;;;;;;3.93;2.47;;;14.30;99.90;;;;;;4980331;28;20652;-93
2021/07/14 04:53:51;;;;;;;2.67;2.47;;;14.30;99.90;;;;;;4977342;28;20625;-94
2021/07/14 04:56:19;;;;;;;5.13;3.00;;;14.30;99.90;;;;;;4985584;28;21332;-94
2021/07/14 04:58:47;;;;;;;4.83;2.67;;;14.30;99.90;;;;;;4982927;28;20672;-94
2021/07/14 05:01:14;;;;;;;3.20;2.60;;;14.30;99.90;;;;;;4986730;28;20651;-96
2021/07/14 05:03:45;;;;;;;8.37;3.03;;;14.30;99.90;;;;;;4979885;28;20636;-95
2021/07/14 05:06:13;;;;;;;4.20;2.73;;;14.30;99.90;;;;;;4992824;28;20691;-96
2021/07/14 05:08:41;;;;;;;4.20;2.60;;;14.30;99.90;;;;;;4984116;28;20729;-95
2021/07/14 05:11:16;;;;;;;4.60;2.70;;;14.30;99.90;;;;;;4991536;28;20740;-95
2021/07/14 05:13:43;;;;;;;8.13;2.60;;;14.30;99.90;;;;;;4992448;28;20783;-96
2021/07/14 05:16:13;;;;;;;3.50;2.20;;;14.40;99.90;;;;;;4991215;28;20692;-94
2021/07/14 05:21:46;;;;;;;4.80;3.10;;;14.50;99.90;;;;;;5006715;28;21242;-96
2021/07/14 05:24:13;;;;;;;4.20;3.03;;;14.50;99.90;;;;;;4994704;28;20640;-96
2021/07/14 05:26:42;;;;;;;5.83;2.80;;;14.60;99.90;;;;;;4988598;28;21183;-96
2021/07/14 05:29:09;;;;;;;4.60;2.80;;;14.50;99.90;;;;;;4986710;28;20669;-95
2021/07/14 05:31:40;;;;;;;3.47;2.77;;;14.50;99.90;;;;;;4995720;28;20636;-96
2021/07/14 05:34:07;;;;;;;2.70;2.50;;;14.60;99.90;;;;;;4989315;28;20647;-96
2021/07/14 05:36:36;;;;;;;2.53;2.30;;;14.60;99.90;;;;;;4991619;28;20669;-96
2021/07/14 05:39:04;;;;;;;7.63;3.20;;;14.60;99.90;;;;;;4982738;28;20754;-94
2021/07/14 05:41:32;;;;;;;2.50;2.30;;;14.60;99.90;;;;;;4982960;28;20724;-96
2021/07/14 05:44:00;;;;;;;7.10;2.87;;;14.60;99.90;;;;;;4987790;28;20647;-96
2021/07/14 05:46:27;;;;;;;6.90;2.97;;;14.70;99.90;;;;;;4988621;28;20786;-96
2021/07/14 05:49:00;;;;;;;3.50;3.20;;;14.70;99.90;;;;;;4990674;28;20628;-96
2021/07/14 05:51:28;;;;;;;3.47;2.80;;;14.80;99.90;;;;;;4988379;28;20731;-94
2021/07/14 05:53:57;;;;;;;3.03;2.67;;;14.80;99.90;;;;;;4987734;28;20628;-96
2021/07/14 05:56:25;;;;;;;4.73;3.10;;;14.90;99.90;;;;;;4989017;28;20675;-95
2021/07/14 05:58:53;;;;;;;7.53;2.93;;;14.90;99.90;;;;;;5008884;28;21061;-96
2021/07/14 06:01:24;;;;;;;2.97;2.33;;;15.00;99.90;;;;;;4981240;28;20677;-96
2021/07/14 06:03:52;;;;;;;2.50;2.03;;;15.00;99.90;;;;;;4996751;28;20636;-96
2021/07/14 06:06:19;;;;;;;2.77;2.57;;;15.00;99.90;;;;;;4994881;28;20672;-96
2021/07/14 06:08:46;;;;;;;5.57;2.97;;;15.00;99.90;;;;;;4997155;28;20641;-96
2021/07/14 06:11:13;;;;;;;5.20;3.10;;;15.00;99.90;;;;;;4991138;28;20647;-96
2021/07/14 06:13:42;;;;;;;3.13;2.80;;;15.10;99.90;;;;;;4992384;28;20656;-94
2021/07/14 06:16:10;;;;;;;4.33;2.73;;;15.10;99.90;;;;;;4993343;28;20659;-95
2021/07/14 06:18:37;;;;;;;3.40;2.53;;;15.10;99.90;;;;;;4992440;28;20688;-94
2021/07/14 06:21:05;;;;;;;3.93;2.73;;;15.00;99.90;;;;;;4992665;28;20632;-94
2021/07/14 06:23:32;;;;;;;2.97;2.43;;;15.00;99.90;;;;;;4991236;28;20660;-96
2021/07/14 06:26:00;;;;;;;3.40;3.10;;;15.00;99.90;;;;;;4991663;28;21060;-95
2021/07/14 06:28:27;;;;;;;7.23;3.17;;;15.00;99.90;;;;;;4988960;28;20668;-95
2021/07/14 06:30:59;;;;;;;4.47;2.83;;;15.00;99.90;;;;;;4988629;28;20992;-96
2021/07/14 06:38:54;;;;;;;4.00;3.60;;;15.10;99.90;;;;;;5023468;28;20714;-95
2021/07/14 06:41:23;;;;;;;4.00;3.00;;;15.20;99.90;;;;;;5033690;28;20651;-96
2021/07/14 06:43:50;;;;;;;4.47;3.33;;;15.20;99.90;;;;;;4991192;28;21066;-95
2021/07/14 06:46:39;;;;;;;4.17;2.83;;;15.30;99.90;;;;;;4998073;28;20652;-95
2021/07/14 06:49:07;;;;;;;11.60;4.40;;;15.40;99.90;;;;;;4964867;28;20644;-92
2021/07/14 06:51:35;;;;;;;5.60;3.10;;;15.30;99.90;;;;;;4959706;28;20655;-91
2021/07/14 06:54:02;;;;;;;5.10;3.50;;;15.30;99.90;;;;;;4968083;28;20692;-92
2021/07/14 06:56:29;;;;;;;7.90;3.30;;;15.30;99.90;;;;;;4968841;28;20641;-92
2021/07/14 06:58:56;;;;;;;7.33;3.43;;;15.30;99.90;;;;;;4970678;28;21178;-92
2021/07/14 07:01:23;;;;;;;6.70;4.03;;;15.50;99.90;;;;;;4973731;28;21384;-95
2021/07/14 07:03:51;;;;;;;6.00;3.33;;;15.50;99.90;;;;;;4968289;28;20697;-93
2021/07/14 07:06:18;;;;;;;5.70;3.30;;;15.50;99.90;;;;;;4974724;28;20628;-95
2021/07/14 07:08:45;;;;;;;5.90;3.13;;;15.50;99.90;;;;;;4975239;28;20731;-95
2021/07/14 07:11:12;;;;;;;4.93;3.53;;;15.50;99.90;;;;;;4965490;28;20648;-94
2021/07/14 07:13:39;;;;;;;6.90;3.40;;;15.60;99.90;;;;;;4966623;28;20649;-95
2021/07/14 07:16:06;;;;;;;5.23;3.23;;;15.50;99.90;;;;;;4969874;28;20665;-95
2021/07/14 07:18:34;;;;;;;4.90;3.50;;;15.60;99.90;;;;;;4970091;28;20703;-94
2021/07/14 07:21:07;;;;;;;4.60;3.10;;;15.60;99.90;;;;;;4964498;28;20733;-94
2021/07/14 07:23:34;;;;;;;5.07;3.30;;;15.60;99.90;;;;;;4970742;28;20624;-94
2021/07/14 07:26:01;;;;;;;6.17;3.70;;;15.70;99.90;;;;;;4967974;28;20649;-95
2021/07/14 07:28:33;;;;;;;5.87;3.20;;;15.70;99.90;;;;;;4965035;28;20680;-95
2021/07/14 07:31:00;;;;;;;5.53;3.20;;;15.70;99.90;;;;;;4967352;28;21240;-94
2021/07/14 07:33:27;;;;;;;7.93;3.57;;;15.70;99.90;;;;;;4968157;28;20671;-93
2021/07/14 07:35:54;;;;;;;4.07;3.70;;;15.70;99.90;;;;;;4971489;28;20645;-92
2021/07/14 07:38:23;;;;;;;5.17;3.40;;;15.70;99.90;;;;;;4962747;28;21038;-91
2021/07/14 07:40:51;;;;;;;4.30;3.60;;;15.70;99.90;;;;;;4974060;28;20668;-91
2021/07/14 07:43:18;;;;;;;3.73;2.90;;;15.70;99.90;;;;;;4964247;28;21139;-94
2021/07/14 07:45:45;;;;;;;8.83;2.93;;;15.70;99.90;;;;;;4967715;28;20626;-94
2021/07/14 07:48:12;;;;;;;7.33;3.03;;;15.80;99.90;;;;;;4967699;28;20696;-93
2021/07/14 07:50:40;;;;;;;4.80;3.73;;;15.80;99.90;;;;;;4965857;28;20624;-93
2021/07/14 07:53:07;;;;;;;6.13;3.37;;;15.70;99.90;;;;;;4969807;28;20637;-94
2021/07/14 07:55:37;;;;;;;3.77;2.70;;;15.70;99.90;;;;;;4962708;28;20629;-94
2021/07/14 07:58:04;;;;;;;3.50;2.60;;;15.80;99.90;;;;;;4962307;28;20669;-93
2021/07/14 08:00:30;;;;;;;4.00;2.40;;;15.80;99.90;;;;;;4968581;28;20767;-93
2021/07/14 08:02:57;;;;;;;4.27;2.37;;;15.80;99.90;;;;;;4974908;28;20633;-93
2021/07/14 08:05:26;;;;;;;8.43;3.60;;;15.90;99.90;;;;;;4977372;28;21179;-93
2021/07/14 08:07:53;;;;;;;3.43;3.10;;;15.90;99.90;;;;;;4965202;28;20661;-93
2021/07/14 08:10:20;;;;;;;3.00;2.57;;;16.00;99.90;;;;;;4969807;28;20664;-93
2021/07/14 08:12:49;;;;;;;5.37;3.17;;;15.90;99.90;;;;;;4971798;28;20683;-93
2021/07/14 08:15:16;;;;;;;10.50;2.50;;;15.90;99.90;;;;;;4965182;28;20643;-93
2021/07/14 08:17:43;;;;;;;12.03;3.57;;;15.90;99.90;;;;;;4969475;28;21210;-92
2021/07/14 08:20:11;;;;;;;6.93;2.93;;;15.90;99.90;;;;;;4972173;28;20660;-94
2021/07/14 08:22:39;;;;;;;6.27;3.50;;;15.90;99.90;;;;;;4967382;28;20642;-94
2021/07/14 08:25:08;;;;;;;5.57;2.83;;;16.10;99.90;;;;;;4964175;28;20642;-94
2021/07/14 08:27:35;;;;;;;3.37;2.37;;;16.10;99.90;;;;;;4969073;28;20669;-95
2021/07/14 08:30:06;;;;;;;5.00;2.40;;;16.10;99.90;;;;;;4969194;28;20626;-94
2021/07/14 08:32:33;;;;;;;3.60;3.00;;;16.00;99.90;;;;;;4965881;28;20638;-93
2021/07/14 08:35:00;;;;;;;11.33;3.03;;;16.10;99.90;;;;;;4965437;28;20632;-92
2021/07/14 08:37:27;;;;;;;4.17;2.50;;;16.20;99.90;;;;;;4964136;28;20664;-92
2021/07/14 08:39:56;;;;;;;5.13;2.77;;;16.20;99.90;;;;;;4968862;28;21029;-93
2021/07/14 08:42:24;;;;;;;3.00;2.43;;;16.20;99.90;;;;;;4965382;28;20637;-92
2021/07/14 08:44:52;;;;;;;7.90;2.63;;;16.30;99.90;;;;;;4963598;28;20617;-92
2021/07/14 08:47:22;;;;;;;5.73;2.73;;;16.20;99.90;;;;;;4969208;28;20690;-93
2021/07/14 08:49:51;;;;;;;4.20;2.40;;;16.30;99.90;;;;;;4958632;28;20622;-92
2021/07/14 08:52:18;;;;;;;6.67;3.10;;;16.40;99.90;;;;;;4963804;28;20683;-93
2021/07/14 08:54:46;;;;;;;3.10;2.67;;;16.50;99.90;;;;;;4962590;28;20956;-92
2021/07/14 08:57:14;;;;;;;4.60;3.80;;;16.50;99.90;;;;;;4966040;28;20661;-93
2021/07/14 08:59:41;;;;;;;3.63;3.30;;;16.60;99.90;;;;;;4968056;28;20687;-92
2021/07/14 09:02:09;;;;;;;4.63;2.90;;;16.60;99.90;;;;;;4969387;28;20618;-92
2021/07/14 09:04:38;;;;;;;8.23;2.87;;;16.60;99.90;;;;;;4970843;28;20637;-92
2021/07/14 09:07:08;;;;;;;4.50;2.63;;;16.60;99.90;;;;;;4967977;28;20668;-91
2021/07/14 09:09:38;;;;;;;5.47;2.73;;;16.50;99.90;;;;;;4967643;28;20632;-92
2021/07/14 09:12:11;;;;;;;4.37;3.13;;;16.50;99.90;;;;;;4960834;28;20613;-93
2021/07/14 09:14:41;;;;;;;6.93;2.97;;;16.60;99.90;;;;;;4966452;28;20665;-92
2021/07/14 09:17:24;;;;;;;4.13;3.13;;;16.60;99.90;;;;;;4966215;28;20649;-92
2021/07/14 09:19:54;;;;;;;3.60;2.63;;;16.70;99.90;;;;;;4967731;28;20665;-91
2021/07/14 09:22:26;;;;;;;5.73;3.10;;;16.70;99.90;;;;;;4974955;28;20656;-92
2021/07/14 09:24:56;;;;;;;3.97;2.77;;;16.90;99.90;;;;;;4975022;28;20635;-92
2021/07/14 09:27:28;;;;;;;5.63;2.90;;;17.00;99.90;;;;;;4969558;28;21058;-92
2021/07/14 09:30:11;;;;;;;2.30;2.10;;;17.00;99.90;;;;;;4969966;28;20614;-92
2021/07/14 09:32:50;;;;;;;4.57;2.10;;;17.00;99.90;;;;;;4976531;28;20745;-92
2021/07/14 09:35:33;;;;;;;4.23;2.80;;;17.00;99.90;;;;;;4969809;28;21203;-92
2021/07/14 09:38:02;;;;;;;5.83;2.90;;;16.90;99.90;;;;;;4975437;28;20672;-92
2021/07/14 09:40:30;;;;;;;2.87;2.67;;;17.10;99.90;;;;;;4972414;28;20723;-92
2021/07/14 09:43:00;;;;;;;4.17;2.87;;;17.20;99.90;;;;;;4977061;28;20641;-92
2021/07/14 09:45:46;;;;;;;3.17;2.97;;;17.10;99.90;;;;;;4967447;28;20622;-91
2021/07/14 09:48:15;;;;;;;3.57;2.63;;;17.40;99.90;;;;;;4972878;28;20748;-92
2021/07/14 09:50:53;;;;;;;3.03;2.70;;;17.40;99.90;;;;;;4975616;28;20637;-92
2021/07/14 09:53:23;;;;;;;2.90;2.70;;;17.30;99.90;;;;;;4975189;28;20648;-91
2021/07/14 09:55:53;;;;;;;6.80;2.83;;;17.50;99.90;;;;;;4973276;28;20681;-91
2021/07/14 09:58:26;;;;;;;4.30;3.03;;;17.60;99.90;;;;;;4972952;28;20696;-91
2021/07/14 10:00:55;;;;;;;3.63;2.87;;;17.70;99.90;;;;;;4976337;28;20665;-91
2021/07/14 10:03:28;;;;;;;2.90;2.33;;;18.00;99.90;;;;;;4974091;28;20613;-92
2021/07/14 10:06:12;;;;;;;3.27;3.00;;;18.20;99.90;;;;;;4976876;28;20617;-94
2021/07/14 10:08:41;;;;;;;4.17;2.50;;;18.10;99.90;;;;;;4980317;28;21516;-94
2021/07/14 10:11:16;;;;;;;9.97;3.00;;;18.40;99.90;;;;;;4972198;28;20629;-92
2021/07/14 10:13:58;;;;;;;3.67;3.37;;;18.60;99.90;;;;;;4976920;28;20967;-94
2021/07/14 10:16:27;;;;;;;6.27;2.80;;;18.80;99.90;;;;;;4973883;28;20633;-94
2021/07/14 10:18:58;;;;;;;2.63;2.37;;;18.90;99.90;;;;;;4975130;28;20668;-93
2021/07/14 10:21:27;;;;;;;4.00;2.77;;;18.90;99.90;;;;;;4976875;28;20772;-94
2021/07/14 10:23:54;;;;;;;5.70;2.37;;;19.00;99.90;;;;;;4975464;28;20648;-93
2021/07/14 10:26:22;;;;;;;3.07;2.87;;;19.10;99.90;;;;;;4975914;28;20655;-93
2021/07/14 10:28:51;;;;;;;6.27;2.97;;;19.30;99.90;;;;;;4975072;28;20729;-94
2021/07/14 10:31:21;;;;;;;3.47;3.17;;;19.70;99.90;;;;;;4975940;28;20629;-94
2021/07/14 10:33:56;;;;;;;4.30;3.33;;;19.70;99.90;;;;;;4975747;28;20636;-93
2021/07/14 10:36:29;;;;;;;3.10;2.37;;;19.70;99.90;;;;;;4974846;28;20663;-93
2021/07/14 10:39:03;;;;;;;3.77;3.10;;;19.80;99.90;;;;;;4976096;28;20710;-94
2021/07/14 10:41:33;;;;;;;3.07;2.77;;;19.90;99.90;;;;;;4982324;28;21101;-93
2021/07/14 10:44:01;;;;;;;7.80;2.47;;;19.90;99.90;;;;;;4979074;28;20637;-93
2021/07/14 10:46:38;;;;;;;4.40;2.70;;;20.00;99.90;;;;;;4988016;28;21062;-96
2021/07/14 10:49:13;;;;;;;2.70;2.50;;;20.40;99.90;;;;;;4981472;28;20637;-96
2021/07/14 10:51:42;;;;;;;4.10;2.53;;;20.50;99.90;;;;;;4986298;28;20620;-96
2021/07/14 10:54:12;;;;;;;4.30;3.70;;;20.70;99.90;;;;;;4985376;28;20633;-94
2021/07/14 10:56:49;;;;;;;2.47;2.27;;;21.00;99.90;;;;;;4991369;28;20660;-95
2021/07/14 10:59:25;;;;;;;2.83;2.60;;;21.40;99.90;;;;;;5004423;28;20629;-93
2021/07/14 11:01:55;;;;;;;2.63;1.87;;;21.50;99.90;;;;;;4993176;28;20690;-95
2021/07/14 11:04:53;;;;;;;4.20;2.07;;;21.70;99.90;;;;;;4996728;28;20637;-95
2021/07/14 11:07:40;;;;;;;2.40;2.20;;;21.80;99.90;;;;;;4982675;28;20660;-96
2021/07/14 11:10:35;;;;;;;2.60;2.30;;;21.90;99.90;;;;;;4983447;28;20639;-96
2021/07/14 11:13:27;;;;;;;5.60;2.07;;;22.30;99.90;;;;;;4982246;28;20631;-95
2021/07/14 11:15:55;;;;;;;2.10;2.00;;;22.10;99.90;;;;;;4969907;28;20629;-93
2021/07/14 11:18:41;;;;;;;4.80;2.00;;;22.40;99.90;;;;;;4979237;28;21262;-94
2021/07/14 11:21:11;;;;;;;2.20;1.77;;;22.70;99.90;;;;;;4976887;28;21463;-94
2021/07/14 11:23:47;;;;;;;2.37;2.00;;;23.10;99.90;;;;;;4982483;28;20637;-93
2021/07/14 11:26:17;;;;;;;1.77;1.67;;;22.80;99.90;;;;;;4983087;28;20632;-94
2021/07/14 11:29:11;;;;;;;2.40;1.63;;;22.90;99.90;;;;;;4973723;28;20848;-93
2021/07/14 11:31:41;;;;;;;3.33;1.80;;;22.80;99.90;;;;;;4979798;28;20636;-94
2021/07/14 11:34:30;;;;;;;2.30;1.90;;;22.80;99.90;;;;;;4979652;28;20671;-96
2021/07/14 11:36:57;;;;;;;1.70;1.60;;;23.00;99.90;;;;;;4980059;28;20715;-96
2021/07/14 11:39:30;;;;;;;2.20;1.73;;;22.80;99.90;;;;;;4974756;28;21264;-96
2021/07/14 11:42:16;;;;;;;2.20;1.43;;;22.80;99.90;;;;;;4974771;28;20661;-95
2021/07/14 11:44:52;;;;;;;1.83;1.47;;;22.70;99.90;;;;;;4974878;28;20666;-96
2021/07/14 11:47:35;;;;;;;3.50;1.60;;;22.90;99.90;;;;;;4969607;28;20688;-93
2021/07/14 11:50:06;;;;;;;1.30;1.20;;;22.70;99.90;;;;;;4978116;28;21055;-95
2021/07/14 11:52:54;;;;;;;1.50;1.40;;;22.80;99.90;;;;;;4980398;28;20644;-96
2021/07/14 11:55:45;;;;;;;2.13;1.60;;;22.90;99.90;;;;;;4982716;28;20647;-93
2021/07/14 11:59:05;;;;;;;1.50;1.30;;;23.00;99.90;;;;;;4972024;28;20688;-95
2021/07/14 12:02:13;;;;;;;1.13;1.00;;;23.00;99.90;;;;;;4978505;28;20666;-93
2021/07/14 12:05:02;;;;;;;1.30;1.20;;;23.20;99.90;;;;;;4977898;28;20631;-94
2021/07/14 12:07:51;;;;;;;1.13;1.03;;;23.10;99.90;;;;;;4973271;28;20675;-94
2021/07/14 12:10:19;;;;;;;1.37;1.27;;;23.20;99.90;;;;;;4972772;28;20665;-94
2021/07/14 12:12:51;;;;;;;1.33;1.10;;;23.50;99.90;;;;;;4978945;28;20618;-95
2021/07/14 12:15:18;;;;;;;1.60;1.27;;;23.50;99.90;;;;;;4976585;28;20638;-96
2021/07/14 12:17:45;;;;;;;1.37;1.27;;;23.60;99.90;;;;;;4977763;28;20668;-95
2021/07/14 12:20:17;;;;;;;1.57;1.10;;;23.30;99.90;;;;;;4978457;28;21354;-95
2021/07/14 12:22:43;;;;;;;1.33;0.93;;;24.10;99.90;;;;;;4974277;28;20640;-95
2021/07/14 12:25:13;;;;;;;1.67;0.70;;;25.30;97.50;;;;;;4970938;28;20618;-94
2021/07/14 12:27:43;;;;;;;2.50;1.03;;;24.90;95.80;;;;;;4968128;28;20664;-94
2021/07/14 12:30:13;;;;;;;1.20;0.90;;;24.80;96.90;;;;;;4971835;28;20648;-94
2021/07/14 12:32:43;;;;;;;2.33;1.00;;;25.10;97.30;;;;;;4969292;28;20983;-93
2021/07/14 12:35:13;;;;;;;2.60;1.40;;;25.20;97.40;;;;;;4977522;28;20632;-94
2021/07/14 12:37:46;;;;;;;1.00;0.73;;;25.20;97.20;;;;;;4977660;28;20667;-94
2021/07/14 12:40:22;;;;;;;1.10;1.00;;;25.40;97.00;;;;;;4974872;28;20665;-93
2021/07/14 12:42:50;;;;;;;1.07;1.00;;;25.20;95.70;;;;;;4976766;28;21177;-94
2021/07/14 12:45:30;;;;;;;2.10;0.97;;;24.90;97.40;;;;;;4979217;28;20644;-93
2021/07/14 12:48:02;;;;;;;1.27;1.20;;;25.50;94.70;;;;;;4976952;28;20653;-93
2021/07/14 12:50:29;;;;;;;0.93;0.93;;;25.40;95.50;;;;;;4986638;28;20993;-93
2021/07/14 12:52:57;;;;;;;1.20;1.10;;;25.90;94.60;;;;;;4989269;28;20605;-93
2021/07/14 12:55:26;;;;;;;1.20;1.10;;;26.10;95.40;;;;;;4979294;28;20635;-94
2021/07/14 12:58:00;;;;;;;1.20;1.10;;;26.10;94.80;;;;;;4966008;28;20668;-93
2021/07/14 13:00:34;;;;;;;1.00;1.00;;;25.90;95.50;;;;;;4979821;28;20628;-95
2021/07/14 13:03:10;;;;;;;1.70;1.40;;;26.00;95.70;;;;;;4971710;28;20651;-94
2021/07/14 13:05:44;;;;;;;1.20;1.10;;;26.30;95.50;;;;;;4977293;28;20590;-93
2021/07/14 13:08:16;;;;;;;1.13;1.03;;;26.10;96.10;;;;;;4968021;28;21056;-92
2021/07/14 13:10:43;;;;;;;4.73;1.43;;;26.00;96.50;;;;;;4974508;28;20661;-93
2021/07/14 13:13:12;;;;;;;1.00;1.00;;;26.00;96.20;;;;;;4969835;28;20718;-93
2021/07/14 13:15:42;;;;;;;3.83;1.20;;;25.90;95.40;;;;;;4969919;28;20628;-93
2021/07/14 13:18:14;;;;;;;1.00;0.90;;;25.90;96.20;;;;;;4972414;28;20641;-92